Time;durP1;ratioP1;P1;durP2;ratioP2;P2;SDS_P1;SDS_P2;PMS_P1;PMS_P2;Temp;Humidity;BMP_temperature;BMP_pressure;BME280_temperature;BME280_humidity;BME280_pressure;Samples;Min_cycle;Max_cycle;Signal;HPM_P1;HPM_P2
2021/11/08 00:00:22;;;;;;;13.97;10.37;;;;;;;8.87;100.00;96621.47;5005329;28;20077;-55
2021/11/08 00:02:51;;;;;;;13.70;9.82;;;;;;;8.88;100.00;96620.53;5004273;28;20070;-56
2021/11/08 00:05:19;;;;;;;11.02;8.10;;;;;;;8.69;100.00;96620.41;5003327;28;20092;-56
2021/11/08 00:07:51;;;;;;;13.95;10.10;;;;;;;8.87;100.00;96621.47;5005345;28;20084;-55
2021/11/08 00:10:27;;;;;;;14.95;10.10;;;;;;;9.08;100.00;96628.50;5004031;28;20110;-56
2021/11/08 00:12:57;;;;;;;14.05;9.32;;;;;;;9.05;100.00;96621.75;5001151;28;20095;-52
2021/11/08 00:15:32;;;;;;;12.27;9.38;;;;;;;8.96;100.00;96619.88;5002226;28;20072;-52
2021/11/08 00:18:04;;;;;;;12.85;9.63;;;;;;;9.01;100.00;96615.88;5000052;28;20480;-52
2021/11/08 00:20:41;;;;;;;14.18;9.93;;;;;;;9.14;100.00;96612.22;5009151;28;20516;-54
2021/11/08 00:23:10;;;;;;;13.38;9.77;;;;;;;8.78;100.00;96617.84;5003150;28;20063;-54
2021/11/08 00:25:41;;;;;;;14.75;10.15;;;;;;;9.28;100.00;96620.56;5004387;28;20098;-55
2021/11/08 00:28:10;;;;;;;11.88;8.73;;;;;;;8.88;100.00;96617.06;5007216;28;20093;-52
2021/11/08 00:30:39;;;;;;;12.77;9.35;;;;;;;9.06;100.00;96618.13;5004238;28;20104;-51
2021/11/08 00:33:10;;;;;;;13.00;9.35;;;;;;;9.07;100.00;96617.16;5000844;28;20062;-54
2021/11/08 00:35:39;;;;;;;13.80;9.77;;;;;;;8.94;100.00;96622.63;5002471;28;20073;-54
2021/11/08 00:38:08;;;;;;;12.77;9.52;;;;;;;8.86;100.00;96626.88;5001191;28;20492;-53
2021/11/08 00:40:38;;;;;;;11.32;9.07;;;;;;;8.92;100.00;96624.56;5003723;28;20220;-52
2021/11/08 00:43:08;;;;;;;13.23;8.47;;;;;;;8.62;100.00;96638.50;5006225;28;20148;-53
2021/11/08 00:45:36;;;;;;;13.20;8.70;;;;;;;8.71;100.00;96639.53;5001086;28;20073;-54
2021/11/08 00:48:07;;;;;;;11.75;8.82;;;;;;;8.72;100.00;96641.19;5003803;28;20135;-56
2021/11/08 00:50:35;;;;;;;;;;;;;;;8.89;100.00;96642.41;5000365;28;20069;-53
2021/11/08 00:53:05;;;;;;;10.75;8.27;;;;;;;8.68;100.00;96645.03;4998618;28;19962;-55
2021/11/08 00:55:35;;;;;;;12.88;8.82;;;;;;;8.53;100.00;96647.13;5002613;28;20034;-57
2021/11/08 00:58:03;;;;;;;;;;;;;;;8.88;100.00;96638.94;4999971;28;20069;-55
2021/11/08 01:00:32;;;;;;;12.07;8.35;;;;;;;9.01;100.00;96642.19;5002405;28;20514;-55
2021/11/08 01:03:04;;;;;;;13.45;9.15;;;;;;;8.99;100.00;96645.94;5000839;28;20492;-53
2021/11/08 01:05:34;;;;;;;11.50;8.30;;;;;;;9.00;100.00;96655.47;5003527;28;20066;-57
2021/11/08 01:08:04;;;;;;;11.25;8.35;;;;;;;8.88;100.00;96661.75;5001250;28;20088;-53
2021/11/08 01:10:32;;;;;;;12.05;8.55;;;;;;;8.82;100.00;96657.03;5000800;28;20065;-56
2021/11/08 01:13:01;;;;;;;11.35;8.70;;;;;;;9.25;100.00;96660.31;5004333;28;20069;-55
2021/11/08 01:15:29;;;;;;;11.48;8.05;;;;;;;8.92;100.00;96647.41;5004902;28;20064;-54
2021/11/08 01:17:58;;;;;;;11.20;8.88;;;;;;;9.01;100.00;96649.25;5019355;28;20073;-53
2021/11/08 01:20:32;;;;;;;10.73;7.97;;;;;;;8.79;100.00;96655.50;5003797;28;20066;-51
2021/11/08 01:23:04;;;;;;;11.48;8.85;;;;;;;8.92;100.00;96658.75;5002074;28;20076;-54
2021/11/08 01:25:34;;;;;;;12.07;8.65;;;;;;;9.18;100.00;96663.59;5001780;28;20077;-53
2021/11/08 01:28:04;;;;;;;10.07;8.13;;;;;;;8.80;100.00;96671.13;5005501;28;20109;-53
2021/11/08 01:30:33;;;;;;;11.98;9.07;;;;;;;9.13;100.00;96666.63;5000701;28;20125;-51
2021/11/08 01:33:04;;;;;;;13.07;9.18;;;;;;;9.01;100.00;96662.41;4998686;28;20092;-56
2021/11/08 01:35:38;;;;;;;12.77;9.02;;;;;;;8.96;100.00;96669.84;5001040;28;20072;-57
2021/11/08 01:38:10;;;;;;;11.43;9.05;;;;;;;9.13;100.00;96671.88;5002394;28;20080;-58
2021/11/08 01:40:40;;;;;;;13.55;9.27;;;;;;;8.89;100.00;96672.16;5001268;28;20085;-55
2021/11/08 01:43:11;;;;;;;10.80;8.32;;;;;;;8.91;100.00;96661.50;5000508;28;20053;-54
2021/11/08 01:45:40;;;;;;;;;;;;;;;8.88;100.00;96670.50;5004100;28;20625;-53
2021/11/08 01:48:08;;;;;;;13.70;9.27;;;;;;;9.04;100.00;96670.84;5003058;28;19957;-57
2021/11/08 01:50:37;;;;;;;13.52;9.52;;;;;;;8.90;100.00;96671.19;5005366;28;20057;-52
2021/11/08 01:53:08;;;;;;;10.85;8.68;;;;;;;9.22;100.00;96671.13;5002295;28;20542;-55
2021/11/08 01:55:37;;;;;;;13.15;9.80;;;;;;;9.07;100.00;96674.19;5004635;28;20077;-53
2021/11/08 01:58:05;;;;;;;13.23;8.93;;;;;;;9.07;100.00;96674.19;5002709;28;20558;-58
2021/11/08 02:00:34;;;;;;;14.02;9.70;;;;;;;8.92;100.00;96673.72;5004420;28;20069;-56
2021/11/08 02:03:03;;;;;;;13.90;9.82;;;;;;;9.01;100.00;96688.69;5002221;28;20109;-50
2021/11/08 02:05:31;;;;;;;14.50;10.07;;;;;;;9.17;100.00;96678.56;5000462;28;20061;-56
2021/11/08 02:08:01;;;;;;;12.00;9.32;;;;;;;8.94;100.00;96684.91;5000075;28;20450;-52
2021/11/08 02:10:32;;;;;;;12.65;9.60;;;;;;;9.02;100.00;96682.50;5004288;28;20078;-52
2021/11/08 02:13:00;;;;;;;12.48;9.30;;;;;;;8.92;100.00;96694.75;5012402;28;20077;-57
2021/11/08 02:15:30;;;;;;;12.10;9.68;;;;;;;9.18;100.00;96689.91;5004291;28;20084;-53
2021/11/08 02:17:58;;;;;;;13.27;9.38;;;;;;;9.16;100.00;96686.59;5007332;28;20476;-57
2021/11/08 02:20:31;;;;;;;12.57;9.82;;;;;;;9.25;100.00;96688.41;5004444;28;20076;-53
2021/11/08 02:23:02;;;;;;;12.00;9.40;;;;;;;9.16;100.00;96694.47;5004698;28;20076;-55
2021/11/08 02:25:30;;;;;;;;;;;;;;;9.31;100.00;96700.22;5006650;28;20086;-52
2021/11/08 02:27:59;;;;;;;12.65;9.50;;;;;;;9.20;100.00;96693.25;5004742;28;19972;-56
2021/11/08 02:30:30;;;;;;;12.73;9.73;;;;;;;9.07;100.00;96698.72;4988201;28;20062;-56
2021/11/08 02:33:00;;;;;;;13.93;8.95;;;;;;;8.81;100.00;96698.28;4982060;28;20110;-54
2021/11/08 02:35:30;;;;;;;12.23;9.35;;;;;;;9.10;100.00;96700.25;4985776;28;20069;-52
2021/11/08 02:38:00;;;;;;;13.88;9.30;;;;;;;9.18;100.00;96705.69;4985821;28;20070;-55
2021/11/08 02:40:30;;;;;;;11.63;9.25;;;;;;;9.11;100.00;96710.63;4987057;28;20282;-56
2021/11/08 02:43:01;;;;;;;15.25;9.27;;;;;;;9.21;100.00;96706.25;5006448;28;20089;-54
2021/11/08 02:45:31;;;;;;;12.55;9.35;;;;;;;9.10;100.00;96708.16;4987922;28;20062;-54
2021/11/08 02:48:00;;;;;;;11.77;8.63;;;;;;;9.38;100.00;96704.84;5000448;28;20070;-54
2021/11/08 02:50:33;;;;;;;13.60;9.02;;;;;;;9.16;100.00;96705.84;5006472;28;20062;-55
2021/11/08 02:53:02;;;;;;;14.05;9.95;;;;;;;9.33;100.00;96707.03;4999935;28;20065;-57
2021/11/08 02:55:31;;;;;;;14.02;9.23;;;;;;;9.32;100.00;96705.34;5003690;28;20092;-52
2021/11/08 02:58:00;;;;;;;14.68;9.07;;;;;;;9.15;100.00;96698.91;5003127;28;20089;-56
2021/11/08 03:00:30;;;;;;;11.77;8.95;;;;;;;9.27;100.00;96700.50;5002861;28;20409;-53
2021/11/08 03:03:00;;;;;;;15.25;9.43;;;;;;;9.35;100.00;96696.38;5000106;28;20073;-57
2021/11/08 03:05:34;;;;;;;11.98;8.68;;;;;;;9.33;100.00;96699.16;5001313;28;20058;-58
2021/11/08 03:08:04;;;;;;;12.20;8.88;;;;;;;9.28;100.00;96701.31;5004548;28;20073;-56
2021/11/08 03:10:35;;;;;;;12.40;9.25;;;;;;;9.38;100.00;96704.00;5002363;28;20082;-56
2021/11/08 03:13:12;;;;;;;12.23;8.38;;;;;;;9.13;100.00;96698.19;5001986;28;20080;-54
2021/11/08 03:15:52;;;;;;;12.00;9.05;;;;;;;9.21;100.00;96695.75;5011110;28;20088;-56
2021/11/08 03:18:29;;;;;;;12.05;8.85;;;;;;;9.11;100.00;96700.09;4983973;28;20089;-54
2021/11/08 03:20:59;;;;;;;12.77;8.95;;;;;;;9.07;100.00;96696.06;4997039;28;20069;-54
2021/11/08 03:23:30;;;;;;;11.65;8.70;;;;;;;9.00;100.00;96703.66;4996007;28;20082;-54
2021/11/08 03:26:10;;;;;;;11.60;8.80;;;;;;;9.02;100.00;96690.38;4993751;28;20081;-55
2021/11/08 03:28:38;;;;;;;12.85;9.02;;;;;;;8.69;100.00;96696.66;4988436;28;20086;-58
2021/11/08 03:31:09;;;;;;;12.25;9.60;;;;;;;8.72;100.00;96697.25;4987986;28;20100;-59
2021/11/08 03:33:39;;;;;;;13.15;9.18;;;;;;;8.70;100.00;96700.94;4984509;28;20061;-59
2021/11/08 03:36:10;;;;;;;11.50;8.80;;;;;;;8.44;100.00;96703.09;4986022;28;20066;-56
2021/11/08 03:38:39;;;;;;;10.13;8.13;;;;;;;8.37;100.00;96705.38;4984707;28;20443;-52
2021/11/08 03:41:09;;;;;;;11.38;8.90;;;;;;;8.52;100.00;96716.44;4990006;28;20069;-56
2021/11/08 03:43:38;;;;;;;12.15;9.32;;;;;;;8.78;100.00;96717.78;5001067;28;20081;-58
2021/11/08 03:46:07;;;;;;;13.93;9.95;;;;;;;8.82;100.00;96715.72;5002043;28;20081;-58
2021/11/08 03:48:36;;;;;;;13.27;9.25;;;;;;;9.18;100.00;96710.97;5005204;28;20065;-55
2021/11/08 03:51:05;;;;;;;13.40;9.65;;;;;;;9.53;100.00;96710.56;5005206;28;20084;-59
2021/11/08 03:53:35;;;;;;;12.55;8.68;;;;;;;9.69;100.00;96700.38;5003957;28;20527;-53
2021/11/08 03:56:04;;;;;;;15.25;9.50;;;;;;;9.70;100.00;96701.22;5003006;28;20068;-55
2021/11/08 03:58:33;;;;;;;13.38;9.52;;;;;;;8.95;100.00;96705.00;5002310;28;20567;-56
2021/11/08 04:01:02;;;;;;;12.10;8.93;;;;;;;8.81;100.00;96721.94;5006817;28;20493;-53
2021/11/08 04:03:31;;;;;;;13.07;8.63;;;;;;;8.99;100.00;96711.69;5000586;28;20069;-57
2021/11/08 04:06:00;;;;;;;12.18;8.73;;;;;;;8.76;100.00;96713.59;5001277;28;20088;-57
2021/11/08 04:08:28;;;;;;;11.98;8.43;;;;;;;8.56;100.00;96720.47;5004788;28;20069;-53
2021/11/08 04:10:58;;;;;;;12.57;9.25;;;;;;;8.65;100.00;96724.16;5004903;28;20080;-52
2021/11/08 04:13:30;;;;;;;12.85;8.55;;;;;;;8.48;100.00;96723.75;5004360;28;20086;-58
2021/11/08 04:16:01;;;;;;;16.70;8.85;;;;;;;8.47;100.00;96722.09;5001199;28;20089;-55
2021/11/08 04:18:30;;;;;;;14.27;9.35;;;;;;;8.51;100.00;96720.88;5002616;28;20127;-55
2021/11/08 04:21:00;;;;;;;14.60;9.25;;;;;;;8.09;100.00;96712.03;5005937;28;20326;-55
2021/11/08 04:23:29;;;;;;;13.77;9.25;;;;;;;8.29;100.00;96721.75;5004250;28;20258;-52
2021/11/08 04:26:04;;;;;;;15.20;9.02;;;;;;;8.00;100.00;96726.72;5003181;28;20065;-53
2021/11/08 04:28:34;;;;;;;15.05;9.80;;;;;;;8.24;100.00;96717.81;5004139;28;20081;-52
2021/11/08 04:31:05;;;;;;;12.30;9.38;;;;;;;7.87;100.00;96728.63;5007730;28;20085;-54
2021/11/08 04:33:35;;;;;;;15.07;8.73;;;;;;;7.84;100.00;96728.88;5001307;28;20072;-52
2021/11/08 04:38:57;;;;;;;14.60;8.88;;;;;;;7.99;100.00;96735.56;4991481;28;20479;-54
2021/11/08 04:41:36;;;;;;;14.77;9.82;;;;;;;8.16;100.00;96723.69;4993307;28;20070;-57
2021/11/08 04:44:13;;;;;;;12.23;9.05;;;;;;;8.55;100.00;96727.53;4985050;28;20065;-59
2021/11/08 04:47:04;;;;;;;13.60;9.60;;;;;;;8.33;100.00;96731.06;5001256;28;20070;-58
2021/11/08 04:49:50;;;;;;;14.60;9.32;;;;;;;8.73;100.00;96724.34;5000663;28;20081;-54
2021/11/08 04:52:26;;;;;;;14.82;8.90;;;;;;;8.75;100.00;96727.72;5003812;28;20086;-57
2021/11/08 04:55:02;;;;;;;11.13;9.10;;;;;;;8.65;100.00;96732.06;4999232;28;20074;-56
2021/11/08 05:22:46;;;;;;;15.82;10.23;;;;;;;8.12;100.00;96747.69;4982009;28;20089;-55
2021/11/08 05:25:30;;;;;;;17.42;10.48;;;;;;;8.14;100.00;96746.63;4986186;28;20085;-58
2021/11/08 05:28:20;;;;;;;15.63;10.93;;;;;;;8.03;100.00;96747.47;5005115;28;21415;-56
2021/11/08 05:30:50;;;;;;;16.90;10.45;;;;;;;7.78;100.00;96753.84;4988970;28;20042;-59
2021/11/08 05:33:18;;;;;;;16.63;11.23;;;;;;;7.84;100.00;96753.34;4999425;28;20074;-58
2021/11/08 05:35:46;;;;;;;20.70;11.63;;;;;;;7.84;100.00;96755.13;5006957;28;20503;-54
2021/11/08 05:38:15;;;;;;;23.42;13.02;;;;;;;7.82;100.00;96759.69;5001715;28;20066;-55
2021/11/08 05:40:44;;;;;;;17.65;12.10;;;;;;;7.69;100.00;96770.28;5006169;28;20061;-57
2021/11/08 05:43:12;;;;;;;15.65;10.38;;;;;;;7.18;100.00;96775.13;5006511;28;20078;-57
2021/11/08 05:45:41;;;;;;;16.98;10.70;;;;;;;7.23;100.00;96778.25;5007320;28;20065;-56
2021/11/08 05:48:11;;;;;;;14.35;11.00;;;;;;;7.24;100.00;96778.13;5004876;28;20076;-55
2021/11/08 05:50:42;;;;;;;18.88;11.52;;;;;;;7.22;100.00;96780.00;5003676;28;20074;-54
2021/11/08 05:53:13;;;;;;;14.13;10.20;;;;;;;7.05;100.00;96788.31;5009296;28;20097;-58
2021/11/08 05:55:46;;;;;;;16.20;10.40;;;;;;;7.30;100.00;96788.16;5007891;28;20475;-58
2021/11/08 05:58:27;;;;;;;16.48;11.02;;;;;;;7.08;100.00;96788.91;5017795;28;20078;-55
2021/11/08 06:50:57;;;;;;;15.43;9.15;;;;;;;8.06;100.00;96841.78;5028039;28;20103;-55
2021/11/08 06:53:29;;;;;;;17.20;9.65;;;;;;;7.58;100.00;96849.84;4994340;28;20151;-57
2021/11/08 06:55:58;;;;;;;17.30;9.65;;;;;;;7.90;100.00;96856.22;4990042;28;20061;-55
2021/11/08 06:58:27;;;;;;;17.30;9.37;;;;;;;8.02;100.00;96856.13;5005788;28;20080;-52
2021/11/08 07:00:57;;;;;;;12.10;8.80;;;;;;;8.59;100.00;96861.34;4989125;28;20523;-58
2021/11/08 07:03:25;;;;;;;17.55;9.70;;;;;;;8.66;100.00;96852.84;4984227;28;20073;-58
2021/11/08 07:05:54;;;;;;;14.48;9.38;;;;;;;8.65;100.00;96855.63;5001369;28;20065;-57
2021/11/08 07:08:22;;;;;;;18.15;9.63;;;;;;;8.67;100.00;96858.94;4992644;28;20100;-56
2021/11/08 07:10:52;;;;;;;14.13;9.43;;;;;;;8.83;100.00;96859.38;4984608;28;20461;-58
2021/11/08 07:13:20;;;;;;;13.25;8.90;;;;;;;8.54;100.00;96859.94;4981461;28;20093;-59
2021/11/08 07:15:49;;;;;;;18.50;8.68;;;;;;;8.46;100.00;96848.34;5002250;28;21243;-57
2021/11/08 07:18:18;;;;;;;14.82;8.75;;;;;;;8.64;100.00;96865.31;4986024;28;20089;-59
2021/11/08 07:20:46;;;;;;;15.57;9.05;;;;;;;8.87;100.00;96863.44;4984928;28;20062;-56
2021/11/08 07:23:15;;;;;;;14.07;8.93;;;;;;;9.30;100.00;96861.75;4985268;28;20078;-57
2021/11/08 07:25:44;;;;;;;14.07;9.32;;;;;;;9.52;100.00;96862.44;4984759;28;20073;-56
2021/11/08 07:28:15;;;;;;;13.25;8.73;;;;;;;9.82;100.00;96860.00;5005175;28;20077;-58
2021/11/08 07:30:46;;;;;;;17.02;9.48;;;;;;;10.14;100.00;96858.06;5001826;28;20073;-58
2021/11/08 07:33:16;;;;;;;15.45;9.23;;;;;;;10.56;100.00;96854.50;5007718;28;20077;-58
2021/11/08 07:35:45;;;;;;;13.20;9.80;;;;;;;10.55;100.00;96866.03;5001806;28;20081;-56
2021/11/08 07:38:13;;;;;;;13.55;9.25;;;;;;;10.25;100.00;96869.50;4997397;28;20074;-51
2021/11/08 07:40:42;;;;;;;17.10;9.00;;;;;;;10.23;100.00;96861.72;4985116;28;20082;-55
2021/11/08 07:43:10;;;;;;;15.07;8.95;;;;;;;10.30;100.00;96865.53;5003656;28;20104;-54
2021/11/08 07:45:40;;;;;;;16.48;8.50;;;;;;;10.50;100.00;96874.34;4992467;28;20092;-55
2021/11/08 07:48:09;;;;;;;15.70;8.15;;;;;;;10.78;100.00;96871.94;4998986;28;20065;-52
2021/11/08 07:50:39;;;;;;;16.98;7.65;;;;;;;10.36;100.00;96877.38;5006869;28;20429;-53
2021/11/08 07:53:08;;;;;;;12.90;6.85;;;;;;;10.43;100.00;96870.59;5000374;28;20065;-54
2021/11/08 07:55:38;;;;;;;14.35;6.80;;;;;;;10.46;100.00;96875.59;4993592;28;20046;-59
2021/11/08 07:58:07;;;;;;;10.70;6.47;;;;;;;10.54;100.00;96862.56;4996984;28;20077;-57
2021/11/08 08:00:37;;;;;;;15.27;5.63;;;;;;;10.56;100.00;96865.06;5001767;28;20446;-53
2021/11/08 08:03:08;;;;;;;15.77;6.00;;;;;;;10.26;100.00;96873.84;5000170;28;20061;-56
2021/11/08 08:05:36;;;;;;;12.23;6.15;;;;;;;10.35;100.00;96871.22;4988415;28;20070;-58
2021/11/08 08:08:05;;;;;;;15.68;6.50;;;;;;;10.37;100.00;96871.13;5026350;28;20084;-57
2021/11/08 08:10:34;;;;;;;15.15;5.97;;;;;;;10.58;100.00;96871.88;5006976;28;20157;-55
2021/11/08 08:13:03;;;;;;;17.90;6.20;;;;;;;10.38;100.00;96868.31;4983548;28;20085;-56
2021/11/08 08:15:32;;;;;;;14.43;6.05;;;;;;;10.99;100.00;96882.38;5005815;28;20061;-53
2021/11/08 08:18:01;;;;;;;14.20;5.97;;;;;;;11.08;100.00;96869.19;5006820;28;20065;-55
2021/11/08 08:20:33;;;;;;;11.68;5.97;;;;;;;11.05;100.00;96868.66;4995930;28;20076;-58
2021/11/08 08:23:02;;;;;;;13.10;5.97;;;;;;;11.08;100.00;96868.34;4998787;28;20477;-54
2021/11/08 08:25:30;;;;;;;11.82;5.72;;;;;;;11.10;100.00;96874.34;4995394;28;20088;-54
2021/11/08 08:27:59;;;;;;;13.82;5.15;;;;;;;10.94;100.00;96869.56;5001307;28;20082;-59
2021/11/08 08:30:28;;;;;;;13.82;5.32;;;;;;;10.79;100.00;96879.69;5007514;28;20061;-56
2021/11/08 08:32:57;;;;;;;10.52;4.70;;;;;;;10.61;100.00;96876.88;4999974;28;20480;-58
2021/11/08 08:35:26;;;;;;;16.30;5.10;;;;;;;10.75;100.00;96877.47;4990080;28;20097;-58
2021/11/08 08:37:56;;;;;;;8.55;4.60;;;;;;;10.86;100.00;96872.91;4987007;28;20065;-56
2021/11/08 08:40:25;;;;;;;17.52;5.07;;;;;;;10.69;100.00;96874.38;4999339;28;20093;-56
2021/11/08 08:42:53;;;;;;;8.82;4.43;;;;;;;10.76;100.00;96874.69;4983275;28;20086;-58
2021/11/08 08:45:22;;;;;;;14.77;4.90;;;;;;;11.11;100.00;96882.13;4987073;28;20103;-58
2021/11/08 08:47:50;;;;;;;16.70;6.20;;;;;;;11.31;100.00;96874.19;4993921;28;20069;-57
2021/11/08 08:50:18;;;;;;;8.70;4.60;;;;;;;10.83;100.00;96880.25;5003913;28;20066;-57
2021/11/08 08:52:47;;;;;;;9.13;5.00;;;;;;;10.89;100.00;96883.19;4993161;28;20045;-57
2021/11/08 08:55:18;;;;;;;16.30;5.03;;;;;;;10.88;100.00;96891.25;4997775;28;20105;-57
2021/11/08 08:57:46;;;;;;;15.02;4.80;;;;;;;10.65;100.00;96885.34;5002439;28;21303;-59
2021/11/08 09:00:18;;;;;;;11.60;5.47;;;;;;;10.66;100.00;96889.66;5011219;28;20460;-55
2021/11/08 09:02:49;;;;;;;14.68;5.90;;;;;;;10.99;100.00;96888.50;5010938;28;20080;-56
2021/11/08 09:05:18;;;;;;;12.32;5.47;;;;;;;10.53;100.00;96889.91;5004853;28;20062;-56
2021/11/08 09:07:50;;;;;;;12.35;5.00;;;;;;;10.34;100.00;96892.47;4993677;28;20450;-54
2021/11/08 09:10:22;;;;;;;11.27;5.50;;;;;;;10.84;100.00;96898.59;5012879;28;20073;-55
2021/11/08 09:12:53;;;;;;;11.48;5.28;;;;;;;10.54;100.00;96891.56;5011011;28;20401;-57
2021/11/08 09:15:22;;;;;;;12.35;5.13;;;;;;;11.05;100.00;96895.88;5004086;28;20069;-57
2021/11/08 09:17:50;;;;;;;10.95;5.25;;;;;;;11.06;100.00;96896.69;4990504;28;20537;-59
2021/11/08 09:20:19;;;;;;;12.60;5.50;;;;;;;11.34;100.00;96895.06;4985079;28;20077;-55
2021/11/08 09:22:50;;;;;;;11.50;5.07;;;;;;;11.44;100.00;96884.50;4994664;28;20443;-59
2021/11/08 09:25:22;;;;;;;17.20;5.20;;;;;;;11.39;100.00;96892.84;5012851;28;20477;-54
2021/11/08 09:27:52;;;;;;;17.55;4.97;;;;;;;11.37;100.00;96890.31;5008798;28;21356;-57
2021/11/08 09:30:23;;;;;;;10.95;5.18;;;;;;;11.24;100.00;96897.69;5006291;28;20070;-58
2021/11/08 09:32:52;;;;;;;13.98;4.88;;;;;;;11.67;100.00;96901.72;5013067;28;20066;-53
2021/11/08 09:35:22;;;;;;;15.90;5.35;;;;;;;11.33;100.00;96901.31;5009795;28;20512;-53
2021/11/08 09:37:50;;;;;;;10.00;4.50;;;;;;;11.54;100.00;96907.28;5003579;28;20520;-58
2021/11/08 09:40:23;;;;;;;10.43;4.60;;;;;;;11.49;100.00;96904.22;5008707;28;20093;-57
2021/11/08 09:42:53;;;;;;;12.10;4.97;;;;;;;11.30;100.00;96909.50;4997751;28;20319;-53
2021/11/08 09:45:23;;;;;;;15.30;5.10;;;;;;;11.29;100.00;96902.56;4988352;28;20081;-53
2021/11/08 09:47:52;;;;;;;13.02;5.20;;;;;;;11.34;100.00;96897.69;5001946;28;20069;-57
2021/11/08 09:50:23;;;;;;;13.45;5.28;;;;;;;11.43;100.00;96899.50;5002512;28;20073;-54
2021/11/08 09:52:51;;;;;;;14.77;5.55;;;;;;;11.49;100.00;96896.28;4990843;28;20156;-56
2021/11/08 09:55:24;;;;;;;13.10;5.40;;;;;;;12.04;100.00;96895.69;4993037;28;20073;-54
2021/11/08 09:57:54;;;;;;;13.40;6.18;;;;;;;11.95;100.00;96899.22;4989659;28;20386;-59
2021/11/08 10:00:26;;;;;;;16.27;5.57;;;;;;;11.16;100.00;96908.09;4979968;28;20081;-56
2021/11/08 10:02:57;;;;;;;13.95;5.22;;;;;;;11.48;100.00;96904.38;4989756;28;20158;-57
2021/11/08 10:05:27;;;;;;;11.77;4.90;;;;;;;12.04;100.00;96904.47;4999613;28;20516;-57
2021/11/08 10:07:57;;;;;;;13.38;4.50;;;;;;;12.40;100.00;96902.00;4992950;28;20070;-56
2021/11/08 10:10:27;;;;;;;15.40;6.13;;;;;;;12.10;100.00;96906.53;4984284;28;20093;-56
2021/11/08 10:13:05;;;;;;;13.30;4.85;;;;;;;11.73;100.00;96911.69;5012006;28;20085;-55
2021/11/08 10:15:38;;;;;;;11.00;4.55;;;;;;;12.66;99.06;96915.38;5001631;28;20090;-56
2021/11/08 10:18:07;;;;;;;9.63;4.28;;;;;;;12.79;93.99;96912.41;4993774;28;20481;-56
2021/11/08 10:20:37;;;;;;;8.55;4.00;;;;;;;12.90;91.88;96909.53;5000388;28;20563;-51
2021/11/08 10:23:06;;;;;;;;;;;;;;;13.03;84.40;96902.09;5002462;28;20150;-55
2021/11/08 10:25:37;;;;;;;12.93;4.53;;;;;;;13.01;81.40;96901.41;4992184;28;20357;-56
2021/11/08 10:28:09;;;;;;;8.98;3.88;;;;;;;13.07;79.52;96899.97;4991961;28;20453;-51
2021/11/08 10:30:39;;;;;;;8.20;3.80;;;;;;;13.26;75.28;96896.41;4979166;28;20062;-56
2021/11/08 10:33:16;;;;;;;12.63;3.63;;;;;;;13.63;78.48;96898.06;4996506;28;20070;-54
2021/11/08 10:35:47;;;;;;;11.25;3.97;;;;;;;13.08;78.80;96896.38;5002773;28;20453;-58
2021/11/08 10:38:16;;;;;;;;;;;;;;;12.75;78.31;96898.63;4997999;28;20100;-57
2021/11/08 10:40:51;;;;;;;10.73;3.75;;;;;;;12.85;78.03;96903.88;5001043;28;19961;-59
2021/11/08 10:43:30;;;;;;;13.82;4.28;;;;;;;12.79;83.13;96902.63;4999881;28;20081;-58
2021/11/08 10:46:00;;;;;;;9.90;3.55;;;;;;;12.94;72.83;96904.78;5010770;28;20046;-56
2021/11/08 10:48:31;;;;;;;13.95;3.88;;;;;;;12.94;69.78;96896.84;4991157;28;20066;-53
2021/11/08 10:51:02;;;;;;;12.88;3.47;;;;;;;12.80;76.27;96898.19;5003084;28;20076;-53
2021/11/08 10:53:32;;;;;;;10.10;3.40;;;;;;;12.74;71.12;96890.84;5008666;28;20066;-56
2021/11/08 10:56:07;;;;;;;9.88;3.60;;;;;;;13.42;69.87;96895.72;5009184;28;20069;-52
2021/11/08 10:58:36;;;;;;;10.50;3.35;;;;;;;13.28;69.41;96886.47;4997553;28;20528;-56
2021/11/08 11:01:04;;;;;;;13.90;3.30;;;;;;;13.76;62.23;96894.03;5005994;28;20081;-58
2021/11/08 11:03:33;;;;;;;10.98;3.17;;;;;;;13.48;63.43;96892.47;4990096;28;20073;-55
2021/11/08 11:06:04;;;;;;;8.10;3.10;;;;;;;13.29;62.89;96889.00;4984387;28;20077;-56
2021/11/08 11:08:33;;;;;;;10.98;3.10;;;;;;;13.03;65.03;96888.84;5008424;28;20073;-56
2021/11/08 11:11:05;;;;;;;12.35;3.28;;;;;;;13.08;65.78;96896.38;4996071;28;20062;-56
2021/11/08 11:13:34;;;;;;;8.93;3.30;;;;;;;13.66;57.68;96881.84;5008313;28;20074;-56
2021/11/08 11:16:04;;;;;;;12.43;3.45;;;;;;;13.93;58.73;96883.53;5025325;28;20169;-56
2021/11/08 11:18:35;;;;;;;9.13;3.83;;;;;;;13.46;62.24;96883.84;5006092;28;20072;-55
2021/11/08 11:21:16;;;;;;;11.80;3.15;;;;;;;14.06;60.67;96877.84;4994416;28;20062;-58
2021/11/08 11:23:48;;;;;;;25.85;10.13;;;;;;;14.35;58.04;96878.34;5002185;28;20097;-53
2021/11/08 11:26:20;;;;;;;29.45;12.48;;;;;;;14.08;58.81;96876.69;5005634;28;20062;-57
2021/11/08 11:28:50;;;;;;;20.02;7.13;;;;;;;14.52;57.81;96873.13;4992720;28;20073;-58
2021/11/08 11:31:21;;;;;;;10.50;3.75;;;;;;;12.82;69.57;96873.22;5004354;28;20078;-59
2021/11/08 11:33:54;;;;;;;11.25;3.83;;;;;;;12.89;72.94;96870.81;4997658;28;20402;-55
2021/11/08 11:36:23;;;;;;;30.25;12.35;;;;;;;13.87;69.91;96869.09;4984912;28;20077;-54
2021/11/08 11:38:59;;;;;;;6.50;2.90;;;;;;;13.49;70.74;96867.66;5000813;28;20070;-57
2021/11/08 11:41:33;;;;;;;9.43;3.50;;;;;;;13.20;75.76;96870.47;4998230;28;20080;-56
2021/11/08 11:44:06;;;;;;;14.10;3.50;;;;;;;12.98;74.78;96872.59;4999724;28;20061;-55
2021/11/08 11:46:37;;;;;;;14.45;3.78;;;;;;;13.50;75.82;96878.09;5008072;28;20308;-56
2021/11/08 11:49:07;;;;;;;10.73;3.60;;;;;;;13.29;76.52;96872.28;5004023;28;20508;-53
2021/11/08 11:51:37;;;;;;;12.10;3.10;;;;;;;13.41;71.73;96867.56;5005689;28;20077;-52
2021/11/08 11:54:06;;;;;;;;;;;;;;;12.98;71.74;96867.28;5008119;28;20073;-56
2021/11/08 11:56:38;;;;;;;7.35;3.17;;;;;;;13.02;74.00;96876.59;5005591;28;19968;-54
2021/11/08 11:59:07;;;;;;;11.63;3.33;;;;;;;12.50;74.73;96876.34;5000786;28;20551;-54
2021/11/08 12:01:38;;;;;;;7.20;3.10;;;;;;;12.61;77.67;96874.47;4998458;28;20085;-58
2021/11/08 12:04:24;;;;;;;8.80;3.35;;;;;;;12.89;79.21;96867.34;5001377;28;20077;-56
2021/11/08 12:06:55;;;;;;;10.88;3.35;;;;;;;13.07;72.68;96868.19;5010218;28;20524;-56
2021/11/08 12:09:24;;;;;;;9.55;3.05;;;;;;;13.02;70.94;96863.38;5007493;28;20072;-55
2021/11/08 12:11:55;;;;;;;11.05;3.05;;;;;;;12.80;65.88;96867.28;4995103;28;20472;-49
2021/11/08 12:14:27;;;;;;;11.07;3.60;;;;;;;13.06;66.45;96866.53;4994169;28;20458;-56
2021/11/08 12:16:58;;;;;;;7.05;2.78;;;;;;;12.81;65.42;96860.16;4999830;28;20077;-54
2021/11/08 12:19:29;;;;;;;9.73;3.28;;;;;;;12.85;63.89;96855.41;5034600;28;20073;-54
2021/11/08 12:21:59;;;;;;;11.60;2.90;;;;;;;12.79;65.80;96849.72;5007349;28;20489;-59
2021/11/08 12:24:29;;;;;;;6.35;2.78;;;;;;;12.62;61.27;96850.50;5004472;28;20308;-52
2021/11/08 12:27:07;;;;;;;13.55;3.80;;;;;;;12.92;57.56;96854.66;4981579;28;20084;-56
2021/11/08 12:29:50;;;;;;;10.32;3.15;;;;;;;12.69;59.53;96850.75;4983162;28;20077;-57
2021/11/08 12:32:19;;;;;;;8.05;2.75;;;;;;;12.59;58.26;96843.72;4981892;28;20084;-53
2021/11/08 12:34:52;;;;;;;7.47;3.30;;;;;;;12.49;57.92;96842.94;5000240;28;20062;-56
2021/11/08 12:37:20;;;;;;;3.97;2.65;;;;;;;12.57;54.34;96843.03;4990385;28;20097;-55
2021/11/08 12:40:00;;;;;;;13.00;3.20;;;;;;;12.99;55.91;96826.59;4983574;28;20062;-55
2021/11/08 12:42:38;;;;;;;7.57;2.70;;;;;;;12.63;56.60;96833.66;4990161;28;20081;-55
2021/11/08 12:45:13;;;;;;;6.10;2.75;;;;;;;12.45;52.95;96824.84;4998979;28;20073;-53
2021/11/08 12:48:02;;;;;;;9.55;2.80;;;;;;;12.20;53.71;96829.84;5000922;28;20069;-56
2021/11/08 12:50:34;;;;;;;8.57;2.83;;;;;;;12.88;51.99;96826.81;4999534;28;20078;-55
2021/11/08 12:53:03;;;;;;;9.77;2.95;;;;;;;12.94;51.64;96826.22;5000560;28;20077;-57
2021/11/08 12:55:40;;;;;;;11.30;3.15;;;;;;;13.28;53.17;96826.41;5006952;28;20096;-55
2021/11/08 12:58:11;;;;;;;13.35;3.08;;;;;;;13.10;53.64;96812.28;5003854;28;20082;-54